createdAt,value
2019-05-01T00:01:43.435Z,53.25
2019-05-01T00:04:05.122Z,53.73
2019-05-01T00:06:09.430Z,52.45
2019-05-01T00:08:13.421Z,52.98
2019-05-01T00:10:18.605Z,54.40
2019-05-01T00:12:22.468Z,52.80
2019-05-01T00:14:26.424Z,54.05
2019-05-01T00:16:30.187Z,53.87
2019-05-01T00:18:33.872Z,54.05
2019-05-01T00:20:37.571Z,54.38
2019-05-01T00:22:41.188Z,53.92
2019-05-01T00:24:44.915Z,54.73
2019-05-01T00:26:48.706Z,53.95
2019-05-01T00:28:52.386Z,55.63
2019-05-01T00:30:55.952Z,54.50
2019-05-01T00:32:59.542Z,54.08
2019-05-01T00:35:03.097Z,55.25
2019-05-01T00:37:06.769Z,54.55
2019-05-01T00:39:12.259Z,57.50
2019-05-01T00:41:15.844Z,55.25
2019-05-01T00:43:19.489Z,56.50
2019-05-01T00:45:23.166Z,57.78
2019-05-01T00:47:26.754Z,57.30
2019-05-01T00:49:30.319Z,58.17
2019-05-01T00:51:33.912Z,59.88
2019-05-01T00:53:37.547Z,57.38
2019-05-01T00:55:51.044Z,58.70
2019-05-01T00:58:05.055Z,58.02
2019-05-01T01:00:43.259Z,56.92
2019-05-01T01:02:45.928Z,59.38
2019-05-01T01:04:49.578Z,58.85
2019-05-01T01:06:53.226Z,59.85
2019-05-01T01:08:56.962Z,60.17
2019-05-01T01:11:00.626Z,58.75
2019-05-01T01:13:04.326Z,61.20
2019-05-01T01:15:08.018Z,59.63
2019-05-01T01:17:11.654Z,59.77
2019-05-01T01:19:15.260Z,56.73
2019-05-01T01:21:18.850Z,57.45
2019-05-01T01:23:22.599Z,55.43
2019-05-01T01:25:26.248Z,54.83
2019-05-01T01:27:29.842Z,57.10
2019-05-01T01:29:33.458Z,56.02
2019-05-01T01:31:37.066Z,57.23
2019-05-01T01:33:40.653Z,57.20
2019-05-01T01:35:44.232Z,58.50
2019-05-01T01:37:47.896Z,55.80
2019-05-01T01:39:51.682Z,54.95
2019-05-01T01:41:55.548Z,53.48
2019-05-01T01:44:17.353Z,53.83
2019-05-01T01:46:22.331Z,55.55
2019-05-01T01:48:25.999Z,54.23
2019-05-01T01:50:29.866Z,53.00
2019-05-01T01:52:33.511Z,54.88
2019-05-01T01:54:37.198Z,52.85
2019-05-01T01:56:40.786Z,52.43
2019-05-01T01:58:44.756Z,51.50
2019-05-01T02:01:09.182Z,52.40
2019-05-01T02:03:06.595Z,51.77
2019-05-01T02:05:12.793Z,52.70
2019-05-01T02:07:16.606Z,53.15
2019-05-01T02:09:20.256Z,54.63
2019-05-01T02:11:23.932Z,54.48
2019-05-01T02:13:27.580Z,55.58
2019-05-01T02:15:31.223Z,55.10
2019-05-01T02:17:34.915Z,54.10
2019-05-01T02:19:38.564Z,53.48
2019-05-01T02:21:42.148Z,54.50
2019-05-01T02:23:45.706Z,54.53
2019-05-01T02:25:49.564Z,54.88
2019-05-01T02:28:12.659Z,53.55
2019-05-01T02:30:17.736Z,54.83
2019-05-01T02:32:22.955Z,53.60
2019-05-01T02:34:27.634Z,55.38
2019-05-01T02:36:31.645Z,54.08
2019-05-01T02:38:35.522Z,53.45
2019-05-01T02:40:58.771Z,53.00
2019-05-01T02:43:02.542Z,54.95
2019-05-01T02:45:06.232Z,53.83
2019-05-01T02:47:11.285Z,53.42
2019-05-01T02:49:18.051Z,54.42
2019-05-01T02:51:21.932Z,52.58
2019-05-01T02:53:26.612Z,49.38
2019-05-01T02:55:35.920Z,51.10
2019-05-01T02:57:40.175Z,50.78
2019-05-01T02:59:45.648Z,51.60
2019-05-01T03:01:49.349Z,50.35
2019-05-01T03:03:53.060Z,48.35
2019-05-01T03:05:56.647Z,47.35
2019-05-01T03:08:00.256Z,48.25
2019-05-01T03:10:08.939Z,47.50
2019-05-01T03:12:10.563Z,48.38
2019-05-01T03:14:16.983Z,47.98
2019-05-01T03:16:21.224Z,49.05
2019-05-01T03:18:32.730Z,48.98
2019-05-01T03:20:54.406Z,47.88
2019-05-01T03:23:16.600Z,45.90
2019-05-01T03:25:20.290Z,44.75
2019-05-01T03:27:23.864Z,44.93
2019-05-01T03:29:27.786Z,44.77
2019-05-01T03:31:31.521Z,45.85
2019-05-01T03:33:35.179Z,41.80
2019-05-01T03:35:38.764Z,42.93
2019-05-01T03:37:42.412Z,41.37
2019-05-01T03:39:46.082Z,42.23
2019-05-01T03:41:49.755Z,41.25
2019-05-01T03:43:53.409Z,41.20
2019-05-01T03:45:57.089Z,41.45
2019-05-01T03:48:00.731Z,41.28
2019-05-01T03:50:04.379Z,41.33
2019-05-01T03:52:07.990Z,40.12
2019-05-01T03:54:12.087Z,39.90
2019-05-01T03:56:15.711Z,41.33
2019-05-01T03:58:19.678Z,40.00
2019-05-01T04:00:34.707Z,41.10
2019-05-01T04:02:57.834Z,40.00
2019-05-01T04:05:01.499Z,39.85
2019-05-01T04:07:05.476Z,39.73
2019-05-01T04:09:09.133Z,38.30
2019-05-01T04:11:12.779Z,37.88
2019-05-01T04:13:16.573Z,37.73
2019-05-01T04:15:20.316Z,37.08
2019-05-01T04:17:41.393Z,36.68
2019-05-01T04:19:45.091Z,35.23
2019-05-01T04:21:56.784Z,36.53
2019-05-01T04:24:00.655Z,33.63
2019-05-01T04:26:04.322Z,34.78
2019-05-01T04:28:32.889Z,34.88
2019-05-01T04:31:13.701Z,34.50
2019-05-01T04:33:18.951Z,32.23
2019-05-01T04:35:30.993Z,33.33
2019-05-01T04:37:34.562Z,33.08
2019-05-01T04:39:38.146Z,33.35
2019-05-01T04:41:41.725Z,33.35
2019-05-01T04:43:45.507Z,32.90
2019-05-01T04:45:49.465Z,33.23
2019-05-01T04:47:53.858Z,33.08
2019-05-01T04:49:57.542Z,33.95
2019-05-01T04:52:02.000Z,32.90
2019-05-01T04:54:05.643Z,33.08
2019-05-01T04:56:09.421Z,33.55
2019-05-01T04:58:13.511Z,33.38
2019-05-01T05:00:17.271Z,33.00
2019-05-01T05:02:29.524Z,34.05
2019-05-01T05:04:33.486Z,33.73
2019-05-01T05:06:37.160Z,34.27
2019-05-01T05:08:40.926Z,35.20
2019-05-01T05:10:46.441Z,36.05
2019-05-01T05:12:57.504Z,34.92
2019-05-01T05:15:09.030Z,36.30
2019-05-01T05:17:19.258Z,36.25
2019-05-01T05:19:22.932Z,36.83
2019-05-01T05:21:26.740Z,35.80
2019-05-01T05:23:30.822Z,35.63
2019-05-01T05:25:34.924Z,35.10
2019-05-01T05:27:40.036Z,35.78
2019-05-01T05:29:45.201Z,35.25
2019-05-01T05:31:49.306Z,35.10
2019-05-01T05:33:53.559Z,36.75
2019-05-01T05:35:57.523Z,35.65
2019-05-01T05:38:10.844Z,36.90
2019-05-01T05:40:15.104Z,36.08
2019-05-01T05:42:18.766Z,36.10
2019-05-01T05:44:22.874Z,33.80
2019-05-01T05:46:26.540Z,35.00
2019-05-01T05:48:30.483Z,34.53
2019-05-01T05:50:41.240Z,34.00
2019-05-01T05:52:50.618Z,32.10
2019-05-01T05:55:11.454Z,32.42
2019-05-01T05:57:26.732Z,31.97
2019-05-01T05:59:34.041Z,33.15
2019-05-01T06:01:55.930Z,32.28
2019-05-01T06:04:29.118Z,32.67
2019-05-01T06:06:48.284Z,33.48
2019-05-01T06:08:53.962Z,31.95
2019-05-01T06:11:33.822Z,33.40
2019-05-01T06:13:57.010Z,33.48
2019-05-01T06:16:18.522Z,33.35
2019-05-01T06:18:27.070Z,33.92
2019-05-01T06:20:46.829Z,34.40
2019-05-01T06:23:24.970Z,34.95
2019-05-01T06:25:32.637Z,34.73
2019-05-01T06:27:36.578Z,34.55
2019-05-01T06:29:40.452Z,36.80
2019-05-01T06:31:44.162Z,35.45
2019-05-01T06:33:48.585Z,35.75
2019-05-01T06:35:53.663Z,36.50
2019-05-01T06:38:02.294Z,36.53
2019-05-01T06:40:06.774Z,38.78
2019-05-01T06:42:14.965Z,38.40
2019-05-01T06:44:22.600Z,38.08
2019-05-01T06:46:32.156Z,38.48
2019-05-01T06:48:37.739Z,39.83
2019-05-01T06:50:47.149Z,38.92
2019-05-01T06:52:50.942Z,40.28
2019-05-01T06:54:55.012Z,40.67
2019-05-01T06:56:58.957Z,41.70
2019-05-01T06:59:02.828Z,40.73
2019-05-01T07:01:06.500Z,42.38
2019-05-01T07:03:11.551Z,40.65
2019-05-01T07:05:16.480Z,40.98
2019-05-01T07:07:25.478Z,42.20
2019-05-01T07:09:28.101Z,40.17
2019-05-01T07:11:32.164Z,40.65
2019-05-01T07:13:40.133Z,39.38
2019-05-01T07:15:42.813Z,40.35
2019-05-01T07:17:47.803Z,36.53
2019-05-01T07:20:11.996Z,37.40
2019-05-01T07:22:15.575Z,36.93
2019-05-01T07:24:19.552Z,36.40
2019-05-01T07:26:23.229Z,36.65
2019-05-01T07:28:29.052Z,35.28
2019-05-01T07:30:42.603Z,36.17
2019-05-01T07:32:46.191Z,36.33
2019-05-01T07:34:49.761Z,34.90
2019-05-01T07:36:53.554Z,35.17
2019-05-01T07:38:57.339Z,35.00
2019-05-01T07:41:03.371Z,33.50
2019-05-01T07:43:31.841Z,33.33
2019-05-01T07:45:53.325Z,32.73
2019-05-01T07:48:01.092Z,32.15
2019-05-01T07:50:04.006Z,31.73
2019-05-01T07:52:07.822Z,30.37
2019-05-01T07:54:11.485Z,30.37
2019-05-01T07:56:17.166Z,29.65
2019-05-01T07:58:20.655Z,28.95
2019-05-01T08:00:36.981Z,28.62
2019-05-01T08:02:40.879Z,26.68
2019-05-01T08:04:44.471Z,27.27
2019-05-01T08:06:52.151Z,27.30
2019-05-01T08:08:53.656Z,27.20
2019-05-01T08:10:59.835Z,25.72
2019-05-01T08:13:02.636Z,24.60
2019-05-01T08:15:06.334Z,22.02
2019-05-01T08:17:12.902Z,23.55
2019-05-01T08:19:24.453Z,20.30
2019-05-01T08:21:45.907Z,20.32
2019-05-01T08:23:49.486Z,20.05
2019-05-01T08:25:53.167Z,18.55
2019-05-01T08:28:03.143Z,18.02
2019-05-01T08:30:35.210Z,18.40
2019-05-01T08:32:44.177Z,17.37
2019-05-01T08:34:49.162Z,18.37
2019-05-01T08:36:53.187Z,18.20
2019-05-01T08:38:56.845Z,17.75
2019-05-01T08:41:00.492Z,17.65
2019-05-01T08:43:04.139Z,16.07
2019-05-01T08:45:18.724Z,16.45
2019-05-01T08:47:27.812Z,17.02
2019-05-01T08:49:50.925Z,18.65
2019-05-01T08:51:54.733Z,16.93
2019-05-01T08:53:59.564Z,17.67
2019-05-01T08:56:03.437Z,16.75
2019-05-01T08:58:08.798Z,16.42
2019-05-01T09:00:12.579Z,17.42
2019-05-01T09:02:16.244Z,17.23
2019-05-01T09:04:19.884Z,16.52
2019-05-01T09:06:34.255Z,17.52
2019-05-01T09:08:32.080Z,17.10
2019-05-01T09:10:34.443Z,17.12
2019-05-01T09:12:38.130Z,17.42
2019-05-01T09:14:41.797Z,16.40
2019-05-01T09:16:45.458Z,16.07
2019-05-01T09:18:49.084Z,17.95
2019-05-01T09:20:54.813Z,16.90
2019-05-01T09:22:58.474Z,16.87
2019-05-01T09:25:02.479Z,16.97
2019-05-01T09:27:23.726Z,16.12
2019-05-01T09:29:30.076Z,17.12
2019-05-01T09:31:35.576Z,15.95
2019-05-01T09:33:39.340Z,15.98
2019-05-01T09:35:45.223Z,16.73
2019-05-01T09:37:48.301Z,16.95
2019-05-01T09:39:51.995Z,17.35
2019-05-01T09:41:55.654Z,16.30
2019-05-01T09:43:59.251Z,16.12
2019-05-01T09:46:03.788Z,15.93
2019-05-01T09:48:08.460Z,15.95
2019-05-01T09:50:12.244Z,15.15
2019-05-01T09:52:50.048Z,16.93
2019-05-01T09:55:17.988Z,16.75
2019-05-01T09:57:20.251Z,15.23
2019-05-01T09:59:23.967Z,17.35
2019-05-01T10:01:31.559Z,17.12
2019-05-01T10:03:33.012Z,17.17
2019-05-01T10:05:37.978Z,16.27
2019-05-01T10:07:41.983Z,17.20
2019-05-01T10:09:47.310Z,16.77
2019-05-01T10:11:51.068Z,17.10
2019-05-01T10:13:58.497Z,16.40
2019-05-01T10:16:00.135Z,17.90
2019-05-01T10:18:03.833Z,17.65
2019-05-01T10:20:07.758Z,18.00
2019-05-01T10:22:11.380Z,17.95
2019-05-01T10:24:15.016Z,18.02
2019-05-01T10:26:23.914Z,19.25
2019-05-01T10:28:35.779Z,18.98
2019-05-01T10:31:06.924Z,19.65
2019-05-01T10:33:15.042Z,19.20
2019-05-01T10:35:27.807Z,18.98
2019-05-01T10:37:33.720Z,19.70
2019-05-01T10:39:36.915Z,20.30
2019-05-01T10:41:41.207Z,20.55
2019-05-01T10:43:45.979Z,21.48
2019-05-01T10:45:49.646Z,21.10
2019-05-01T10:47:53.325Z,21.30
2019-05-01T10:49:57.128Z,26.77
2019-05-01T10:52:13.409Z,23.60
2019-05-01T10:54:06.227Z,22.48
2019-05-01T10:56:09.949Z,22.70
2019-05-01T10:58:18.265Z,22.62
2019-05-01T11:00:19.100Z,22.48
2019-05-01T11:02:22.767Z,23.55
2019-05-01T11:04:26.355Z,23.52
2019-05-01T11:06:30.395Z,24.15
2019-05-01T11:08:34.039Z,23.52
2019-05-01T11:10:37.667Z,23.52
2019-05-01T11:12:41.286Z,22.45
2019-05-01T11:14:44.959Z,26.30
2019-05-01T11:16:48.628Z,24.95
2019-05-01T11:18:52.298Z,25.20
2019-05-01T11:20:58.247Z,25.62
2019-05-01T11:23:01.851Z,25.23
2019-05-01T11:25:05.930Z,25.37
2019-05-01T11:27:09.721Z,25.95
2019-05-01T11:29:13.470Z,27.05
2019-05-01T11:31:23.796Z,28.23
2019-05-01T11:33:49.610Z,28.38
2019-05-01T11:36:11.417Z,25.27
2019-05-01T11:38:49.807Z,26.33
2019-05-01T11:40:57.883Z,25.15
2019-05-01T11:43:02.804Z,28.80
2019-05-01T11:45:07.540Z,26.35
2019-05-01T11:47:11.203Z,26.20
2019-05-01T11:49:14.779Z,26.27
2019-05-01T11:51:18.468Z,30.40
2019-05-01T11:53:22.122Z,26.40
2019-05-01T11:55:25.776Z,27.32
2019-05-01T11:57:29.377Z,26.60
2019-05-01T11:59:33.056Z,25.25
2019-05-01T12:01:36.749Z,25.10
2019-05-01T12:03:40.401Z,25.23
2019-05-01T12:05:44.097Z,24.80
2019-05-01T12:07:47.737Z,23.42
2019-05-01T12:09:51.405Z,23.50
2019-05-01T12:11:57.736Z,24.52
2019-05-01T12:14:01.292Z,25.20
2019-05-01T12:16:12.616Z,24.60
2019-05-01T12:18:16.293Z,24.15
2019-05-01T12:20:21.871Z,24.05
2019-05-01T12:22:25.519Z,22.73
2019-05-01T12:24:29.119Z,23.38
2019-05-01T12:26:32.812Z,22.90
2019-05-01T12:28:36.458Z,23.02
2019-05-01T12:30:40.116Z,23.18
2019-05-01T12:32:43.701Z,22.48
2019-05-01T12:34:47.313Z,23.15
2019-05-01T12:36:52.544Z,24.00
2019-05-01T12:38:56.196Z,21.93
2019-05-01T12:41:21.844Z,23.90
2019-05-01T12:43:25.514Z,23.87
2019-05-01T12:45:29.187Z,22.82
2019-05-01T12:47:55.062Z,24.37
2019-05-01T12:59:43.927Z,22.25
2019-05-01T13:01:47.583Z,21.07
2019-05-01T13:03:51.174Z,22.17
2019-05-01T13:05:54.866Z,22.75
2019-05-01T13:07:58.543Z,21.20
2019-05-01T13:10:02.270Z,20.52
2019-05-01T13:12:05.921Z,20.32
2019-05-01T13:14:09.516Z,19.48
2019-05-01T13:16:13.103Z,19.75
2019-05-01T13:18:16.810Z,20.45
2019-05-01T13:20:20.454Z,19.07
2019-05-01T13:22:24.027Z,21.40
2019-05-01T13:24:27.622Z,22.27
2019-05-01T13:26:56.369Z,21.73
2019-05-01T13:29:13.788Z,20.80
2019-05-01T13:31:39.554Z,20.92
2019-05-01T13:33:43.203Z,20.15
2019-05-01T13:35:46.863Z,20.02
2019-05-01T13:37:50.617Z,20.52
2019-05-01T13:39:54.315Z,21.10
2019-05-01T13:41:57.906Z,21.30
2019-05-01T13:44:01.536Z,20.60
2019-05-01T13:46:05.465Z,20.72
2019-05-01T13:48:09.105Z,21.25
2019-05-01T13:50:13.079Z,20.15
2019-05-01T13:52:16.729Z,22.45
2019-05-01T13:54:20.459Z,20.40
2019-05-01T13:56:24.123Z,20.68
2019-05-01T13:58:31.363Z,19.70
2019-05-01T14:00:35.317Z,19.70
2019-05-01T14:02:39.151Z,19.98
2019-05-01T14:04:42.835Z,21.60
2019-05-01T14:06:46.542Z,19.80
2019-05-01T14:08:50.125Z,21.37
2019-05-01T14:10:53.747Z,20.90
2019-05-01T14:12:57.332Z,21.07
2019-05-01T14:15:00.985Z,21.45
2019-05-01T14:17:04.666Z,21.68
2019-05-01T14:19:08.762Z,20.70
2019-05-01T14:21:19.392Z,20.57
2019-05-01T14:23:50.714Z,21.57
2019-05-01T14:26:03.809Z,21.48
2019-05-01T14:28:08.886Z,21.62
2019-05-01T14:30:12.783Z,20.68
2019-05-01T14:32:16.485Z,21.52
2019-05-01T14:34:20.099Z,20.12
2019-05-01T14:36:23.874Z,19.07
2019-05-01T14:38:27.566Z,20.45
2019-05-01T14:40:33.358Z,21.23
2019-05-01T14:42:36.501Z,20.62
2019-05-01T14:44:40.086Z,20.72
2019-05-01T14:46:43.738Z,20.48
2019-05-01T14:48:47.395Z,22.40
2019-05-01T14:50:51.055Z,22.20
2019-05-01T14:52:54.760Z,20.92
2019-05-01T14:54:58.437Z,20.97
2019-05-01T14:57:02.005Z,21.82
2019-05-01T14:59:06.200Z,20.32
2019-05-01T15:01:09.891Z,21.60
2019-05-01T15:03:13.541Z,20.30
2019-05-01T15:05:17.200Z,20.85
2019-05-01T15:07:20.853Z,18.75
2019-05-01T15:09:24.541Z,18.32
2019-05-01T15:11:28.187Z,20.48
2019-05-01T15:13:50.579Z,21.82
2019-05-01T15:16:12.881Z,20.72
2019-05-01T15:18:24.976Z,21.40
2019-05-01T15:20:28.810Z,21.25
2019-05-01T15:22:32.483Z,22.10
2019-05-01T15:24:36.052Z,21.70
2019-05-01T15:26:39.684Z,23.18
2019-05-01T15:28:43.260Z,22.87
2019-05-01T15:30:46.912Z,20.72
2019-05-01T15:32:50.498Z,20.50
2019-05-01T15:34:54.196Z,23.07
2019-05-01T15:36:57.809Z,22.22
2019-05-01T15:39:02.388Z,22.10
2019-05-01T15:41:19.756Z,22.60
2019-05-01T15:43:26.291Z,22.45
2019-05-01T15:45:29.924Z,21.93
2019-05-01T15:47:33.634Z,23.60
2019-05-01T15:49:37.211Z,24.25
2019-05-01T15:51:40.888Z,22.10
2019-05-01T15:53:44.528Z,22.62
2019-05-01T15:55:48.187Z,22.58
2019-05-01T15:57:51.791Z,22.42
2019-05-01T15:59:55.461Z,22.58
2019-05-01T16:01:59.156Z,21.25
2019-05-01T16:04:02.907Z,22.30
2019-05-01T16:06:08.371Z,21.73
2019-05-01T16:08:12.121Z,22.13
2019-05-01T16:10:18.922Z,23.02
2019-05-01T16:12:41.704Z,23.32
2019-05-01T16:14:47.500Z,23.38
2019-05-01T16:16:51.221Z,23.50
2019-05-01T16:18:54.810Z,22.62
2019-05-01T16:20:58.461Z,22.05
2019-05-01T16:23:02.106Z,23.10
2019-05-01T16:25:06.363Z,24.67
2019-05-01T16:27:09.969Z,23.40
2019-05-01T16:29:13.636Z,22.62
2019-05-01T16:31:17.224Z,23.50
2019-05-01T16:33:20.803Z,23.07
2019-05-01T16:35:24.459Z,23.90
2019-05-01T16:37:28.080Z,22.80
2019-05-01T16:39:50.816Z,23.67
2019-05-01T16:41:54.527Z,23.45
2019-05-01T16:43:58.231Z,24.02
2019-05-01T16:46:01.893Z,23.98
2019-05-01T16:48:05.581Z,22.58
2019-05-01T16:50:09.546Z,23.27
2019-05-01T16:52:13.837Z,23.62
2019-05-01T16:54:17.547Z,24.30
2019-05-01T16:56:21.135Z,23.80
2019-05-01T16:58:24.823Z,23.62
2019-05-01T17:00:46.670Z,23.62
2019-05-01T17:03:09.478Z,23.22
2019-05-01T17:05:41.924Z,24.12
2019-05-01T17:08:07.776Z,23.67
2019-05-01T17:10:16.863Z,23.62
2019-05-01T17:12:23.141Z,24.40
2019-05-01T17:14:27.011Z,23.38
2019-05-01T17:16:30.728Z,24.12
2019-05-01T17:18:37.406Z,23.30
2019-05-01T17:20:41.194Z,23.38
2019-05-01T17:22:46.326Z,23.38
2019-05-01T17:24:50.343Z,23.50
2019-05-01T17:26:54.120Z,21.68
2019-05-01T17:28:57.843Z,23.67
2019-05-01T17:31:01.499Z,22.77
2019-05-01T17:33:05.197Z,23.98
2019-05-01T17:35:08.884Z,23.87
2019-05-01T17:37:12.590Z,23.12
2019-05-01T17:39:18.112Z,23.77
2019-05-01T17:41:22.790Z,23.57
2019-05-01T17:43:27.300Z,22.98
2019-05-01T17:45:34.800Z,24.65
2019-05-01T17:47:36.421Z,23.60
2019-05-01T17:49:41.107Z,24.27
2019-05-01T17:51:46.436Z,23.50
2019-05-01T17:53:51.257Z,22.40
2019-05-01T17:55:55.016Z,24.07
2019-05-01T17:57:58.753Z,23.55
2019-05-01T18:00:04.071Z,22.98
2019-05-01T18:02:29.883Z,24.70
2019-05-01T18:05:10.812Z,23.73
2019-05-01T18:07:14.430Z,24.02
2019-05-01T18:09:19.615Z,24.60
2019-05-01T18:11:23.607Z,25.85
2019-05-01T18:13:27.179Z,24.32
2019-05-01T18:15:31.321Z,25.05
2019-05-01T18:17:35.023Z,25.70
2019-05-01T18:19:41.777Z,23.52
2019-05-01T18:21:51.963Z,24.65
2019-05-01T18:24:23.250Z,24.60
2019-05-01T18:26:53.485Z,24.30
2019-05-01T18:29:08.330Z,26.15
2019-05-01T18:31:16.804Z,25.10
2019-05-01T18:33:22.081Z,23.87
2019-05-01T18:35:25.959Z,24.47
2019-05-01T18:37:35.087Z,25.70
2019-05-01T18:39:41.580Z,26.02
2019-05-01T18:42:03.417Z,25.25
2019-05-01T18:44:10.024Z,25.55
2019-05-01T18:46:12.619Z,24.52
2019-05-01T18:48:16.469Z,24.85
2019-05-01T18:50:20.266Z,25.37
2019-05-01T18:52:24.117Z,25.02
2019-05-01T18:54:30.418Z,24.98
2019-05-01T18:56:38.082Z,25.40
2019-05-01T18:58:38.879Z,27.67
2019-05-01T19:00:44.479Z,24.87
2019-05-01T19:02:48.269Z,25.30
2019-05-01T19:04:52.120Z,25.97
2019-05-01T19:06:55.954Z,26.17
2019-05-01T19:08:59.818Z,26.35
2019-05-01T19:11:12.225Z,25.60
2019-05-01T19:13:11.274Z,26.00
2019-05-01T19:15:15.092Z,25.72
2019-05-01T19:17:18.998Z,27.62
2019-05-01T19:19:22.844Z,26.70
2019-05-01T19:21:29.909Z,27.65
2019-05-01T19:23:33.801Z,27.42
2019-05-01T19:25:38.694Z,26.42
2019-05-01T19:27:42.534Z,26.77
2019-05-01T19:29:49.635Z,27.90
2019-05-01T19:31:53.535Z,26.57
2019-05-01T19:33:57.527Z,27.20
2019-05-01T19:36:02.711Z,27.82
2019-05-01T19:38:06.952Z,26.90
2019-05-01T19:40:10.929Z,27.73
2019-05-01T19:42:15.759Z,27.90
2019-05-01T19:44:20.190Z,27.25
2019-05-01T19:46:24.201Z,27.32
2019-05-01T19:48:28.127Z,24.57
2019-05-01T19:50:32.046Z,23.12
2019-05-01T19:52:37.816Z,22.00
2019-05-01T19:54:42.440Z,22.02
2019-05-01T19:56:46.309Z,21.52
2019-05-01T19:58:50.101Z,20.20
2019-05-01T20:00:58.269Z,20.95
2019-05-01T20:03:02.475Z,21.45
2019-05-01T20:05:06.965Z,20.62
2019-05-01T20:07:15.754Z,21.00
2019-05-01T20:09:17.657Z,21.30
2019-05-01T20:11:21.442Z,22.77
2019-05-01T20:13:25.268Z,22.62
2019-05-01T20:15:29.052Z,22.45
2019-05-01T20:17:32.992Z,22.22
2019-05-01T20:19:36.733Z,21.73
2019-05-01T20:21:41.933Z,22.48
2019-05-01T20:23:45.978Z,22.00
2019-05-01T20:25:51.038Z,22.13
2019-05-01T20:27:57.273Z,21.90
2019-05-01T20:30:00.701Z,21.23
2019-05-01T20:32:04.545Z,22.02
2019-05-01T20:34:11.971Z,21.42
2019-05-01T20:36:13.804Z,22.17
2019-05-01T20:38:17.599Z,22.75
2019-05-01T20:40:21.550Z,22.50
2019-05-01T20:42:25.301Z,22.55
2019-05-01T20:44:29.007Z,22.32
2019-05-01T20:46:32.741Z,22.58
2019-05-01T20:48:36.473Z,22.52
2019-05-01T20:50:40.624Z,22.90
2019-05-01T20:52:44.339Z,22.70
2019-05-01T20:54:48.027Z,22.52
2019-05-01T20:56:59.597Z,22.95
2019-05-01T20:59:04.980Z,22.85
2019-05-01T21:01:08.896Z,21.68
2019-05-01T21:03:14.187Z,21.57
2019-05-01T21:05:29.990Z,21.27
2019-05-01T21:07:38.519Z,21.10
2019-05-01T21:09:47.898Z,21.15
2019-05-01T21:12:04.758Z,20.27
2019-05-01T21:14:15.587Z,20.75
2019-05-01T21:16:03.979Z,22.25
2019-05-01T21:18:07.956Z,21.77
2019-05-01T21:20:13.363Z,22.27
2019-05-01T21:22:17.103Z,21.77
2019-05-01T21:24:20.794Z,22.58
2019-05-01T21:26:24.362Z,21.02
2019-05-01T21:28:28.040Z,21.65
2019-05-01T21:30:33.472Z,21.70
2019-05-01T21:32:37.043Z,22.40
2019-05-01T21:34:40.714Z,23.10
2019-05-01T21:36:47.381Z,22.07
2019-05-01T21:38:49.643Z,22.10
2019-05-01T21:40:53.833Z,22.48
2019-05-01T21:42:57.678Z,22.42
2019-05-01T21:45:04.189Z,22.30
2019-05-01T21:47:06.687Z,22.65
2019-05-01T21:49:10.428Z,22.02
2019-05-01T21:51:14.009Z,23.38
2019-05-01T21:53:17.588Z,22.27
2019-05-01T21:55:21.190Z,22.50
2019-05-01T21:57:27.197Z,22.40
2019-05-01T21:59:30.063Z,21.33
2019-05-01T22:01:34.721Z,22.45
2019-05-01T22:03:39.056Z,23.02
2019-05-01T22:05:42.627Z,22.30
2019-05-01T22:07:46.226Z,21.48
2019-05-01T22:09:50.415Z,21.73
2019-05-01T22:11:55.365Z,21.77
2019-05-01T22:14:01.983Z,23.18
2019-05-01T22:16:11.850Z,23.50
2019-05-01T22:18:26.224Z,22.45
2019-05-01T22:20:35.855Z,21.85
2019-05-01T22:22:45.971Z,22.95
2019-05-01T22:25:04.610Z,22.25
2019-05-01T22:27:12.066Z,22.65
2019-05-01T22:29:17.042Z,23.52
2019-05-01T22:31:39.733Z,21.73
2019-05-01T22:33:46.002Z,23.25
2019-05-01T22:35:51.638Z,23.80
2019-05-01T22:37:55.243Z,24.05
2019-05-01T22:40:04.494Z,25.60
2019-05-01T22:42:08.144Z,24.72
2019-05-01T22:44:12.733Z,23.67
2019-05-01T22:46:22.260Z,24.20
2019-05-01T22:48:25.877Z,24.27
2019-05-01T22:50:29.578Z,26.12
2019-05-01T22:52:33.148Z,25.02
2019-05-01T22:54:36.745Z,25.30
2019-05-01T22:56:40.408Z,25.72
2019-05-01T22:58:44.064Z,25.00
2019-05-01T23:00:53.043Z,24.65
2019-05-01T23:02:59.976Z,25.37
2019-05-01T23:05:02.985Z,25.40
2019-05-01T23:07:06.595Z,25.05
2019-05-01T23:09:11.158Z,24.50
2019-05-01T23:11:20.298Z,24.87
2019-05-01T23:13:20.138Z,25.68
2019-05-01T23:15:25.224Z,25.72
2019-05-01T23:17:39.617Z,25.45
2019-05-01T23:19:43.636Z,24.90
2019-05-01T23:21:50.851Z,26.52
2019-05-01T23:23:56.939Z,26.20
2019-05-01T23:25:58.043Z,24.72
2019-05-01T23:28:04.298Z,26.00
2019-05-01T23:30:07.993Z,25.90
2019-05-01T23:32:11.639Z,26.52
2019-05-01T23:34:15.260Z,26.60
2019-05-01T23:36:23.619Z,26.00
2019-05-01T23:38:24.154Z,27.02
2019-05-01T23:40:27.738Z,25.97
2019-05-01T23:42:31.326Z,26.62
2019-05-01T23:44:38.095Z,26.55
2019-05-01T23:46:40.374Z,26.85
2019-05-01T23:48:44.326Z,27.62
2019-05-01T23:50:47.901Z,26.62
2019-05-01T23:52:51.564Z,27.98
2019-05-01T23:54:55.198Z,27.05
2019-05-01T23:56:58.795Z,26.93
2019-05-01T23:59:02.465Z,26.40
